createdAt,value
2017-10-31T00:00:06.164Z,102212.27
2017-10-31T00:02:34.508Z,102215.25
2017-10-31T00:05:03.469Z,102219.98
2017-10-31T00:07:31.860Z,102217.81
2017-10-31T00:10:00.248Z,102217.19
2017-10-31T00:12:28.827Z,102210.00
2017-10-31T00:14:57.173Z,102215.02
2017-10-31T00:17:26.458Z,102209.79
2017-10-31T00:19:55.567Z,102211.70
2017-10-31T00:22:23.931Z,102218.97
2017-10-31T00:24:53.744Z,102212.55
2017-10-31T00:27:22.118Z,102212.70
2017-10-31T00:29:50.462Z,102211.21
2017-10-31T00:32:18.812Z,102196.39
2017-10-31T00:34:47.608Z,102205.99
2017-10-31T00:37:15.937Z,102211.73
2017-10-31T00:39:44.300Z,102216.89
2017-10-31T00:42:15.087Z,102206.87
2017-10-31T00:44:44.451Z,102200.80
2017-10-31T00:47:13.558Z,102209.70
2017-10-31T00:49:42.474Z,102204.16
2017-10-31T00:52:11.622Z,102209.97
2017-10-31T00:54:40.829Z,102205.80
2017-10-31T00:57:09.298Z,102209.14
2017-10-31T00:59:38.364Z,102208.55
2017-10-31T01:02:07.641Z,102206.31
2017-10-31T01:04:36.024Z,102205.03
2017-10-31T01:07:04.373Z,102202.83
2017-10-31T01:09:33.522Z,102211.03
2017-10-31T01:12:02.005Z,102211.25
2017-10-31T01:14:32.073Z,102212.83
2017-10-31T01:17:00.427Z,102208.70
2017-10-31T01:19:29.955Z,102206.18
2017-10-31T01:21:58.358Z,102208.16
2017-10-31T01:24:26.710Z,102204.24
2017-10-31T01:26:55.188Z,102202.63
2017-10-31T01:29:23.771Z,102195.41
2017-10-31T01:31:52.862Z,102194.75
2017-10-31T01:34:22.778Z,102193.77
2017-10-31T01:36:51.914Z,102188.91
2017-10-31T01:39:20.261Z,102193.92
2017-10-31T01:41:49.531Z,102191.30
2017-10-31T01:44:18.238Z,102195.34
2017-10-31T01:46:46.595Z,102205.50
2017-10-31T01:49:15.737Z,102200.72
2017-10-31T01:51:44.837Z,102195.75
2017-10-31T01:54:13.959Z,102195.41
2017-10-31T01:56:43.172Z,102191.83
2017-10-31T01:59:12.375Z,102185.47
2017-10-31T02:01:40.854Z,102185.45
2017-10-31T02:04:09.618Z,102188.08
2017-10-31T02:06:38.073Z,102180.44
2017-10-31T02:09:07.225Z,102176.66
2017-10-31T02:11:35.590Z,102176.69
2017-10-31T02:14:04.614Z,102172.09
2017-10-31T02:16:33.632Z,102173.52
2017-10-31T02:19:02.800Z,102173.52
2017-10-31T02:21:31.914Z,102186.91
2017-10-31T02:24:01.037Z,102186.69
2017-10-31T02:26:29.523Z,102182.98
2017-10-31T02:28:59.210Z,102186.77
2017-10-31T02:31:28.329Z,102184.86
2017-10-31T02:33:57.648Z,102192.75
2017-10-31T02:36:26.037Z,102190.47
2017-10-31T02:39:11.997Z,102186.16
2017-10-31T02:41:40.381Z,102189.10
2017-10-31T02:44:08.926Z,102182.52
2017-10-31T02:46:37.476Z,102182.64
2017-10-31T02:49:05.834Z,102179.06
2017-10-31T02:51:34.176Z,102172.60
2017-10-31T02:54:04.899Z,102179.46
2017-10-31T02:56:34.719Z,102167.25
2017-10-31T02:59:03.069Z,102176.31
2017-10-31T03:01:31.449Z,102181.06
2017-10-31T03:04:01.417Z,102186.77
2017-10-31T03:06:31.481Z,102188.89
2017-10-31T03:09:00.093Z,102183.08
2017-10-31T03:11:29.188Z,102185.05
2017-10-31T03:13:59.649Z,102181.51
2017-10-31T03:16:28.812Z,102182.59
2017-10-31T03:18:57.168Z,102180.55
2017-10-31T03:21:25.504Z,102179.09
2017-10-31T03:23:54.038Z,102172.52
2017-10-31T03:26:23.582Z,102180.22
2017-10-31T03:28:52.022Z,102175.69
2017-10-31T03:31:21.345Z,102176.13
2017-10-31T03:33:50.578Z,102178.91
2017-10-31T03:36:18.926Z,102180.25
2017-10-31T03:38:48.049Z,102174.75
2017-10-31T03:41:16.386Z,102182.92
2017-10-31T03:43:44.765Z,102186.75
2017-10-31T03:46:13.424Z,102192.81
2017-10-31T03:48:41.808Z,102200.31
2017-10-31T03:51:10.389Z,102195.17
2017-10-31T03:53:39.277Z,102191.17
2017-10-31T03:56:07.657Z,102192.86
2017-10-31T03:58:36.238Z,102189.25
2017-10-31T04:01:04.623Z,102177.14
2017-10-31T04:03:33.405Z,102176.81
2017-10-31T04:06:03.262Z,102177.73
2017-10-31T04:08:31.661Z,102178.64
2017-10-31T04:11:00.770Z,102182.13
2017-10-31T04:13:29.988Z,102172.86
2017-10-31T04:15:59.261Z,102183.16
2017-10-31T04:18:28.380Z,102189.11
2017-10-31T04:20:56.727Z,102191.54
2017-10-31T04:23:25.403Z,102184.42
2017-10-31T04:25:55.260Z,102183.18
2017-10-31T04:28:23.817Z,102179.27
2017-10-31T04:30:53.813Z,102181.59
2017-10-31T04:33:22.494Z,102172.56
2017-10-31T04:35:50.837Z,102170.05
2017-10-31T04:38:19.408Z,102173.22
2017-10-31T04:40:48.027Z,102176.91
2017-10-31T04:43:17.980Z,102183.06
2017-10-31T04:45:46.391Z,102179.61
2017-10-31T04:48:15.549Z,102181.16
2017-10-31T04:50:43.948Z,102180.05
2017-10-31T04:53:12.362Z,102187.73
2017-10-31T04:55:41.580Z,102180.29
2017-10-31T04:58:10.602Z,102180.35
2017-10-31T05:00:40.341Z,102173.22
2017-10-31T05:03:08.702Z,102174.70
2017-10-31T05:05:37.081Z,102171.06
2017-10-31T05:08:05.488Z,102169.90
2017-10-31T05:10:34.538Z,102170.88
2017-10-31T05:13:02.952Z,102159.81
2017-10-31T05:15:31.341Z,102165.08
2017-10-31T05:18:00.701Z,102158.92
2017-10-31T05:20:30.377Z,102166.27
2017-10-31T05:22:59.579Z,102164.86
2017-10-31T05:25:28.871Z,102165.78
2017-10-31T05:27:57.256Z,102163.77
2017-10-31T05:30:25.630Z,102175.31
2017-10-31T05:32:54.012Z,102167.20
2017-10-31T05:35:22.430Z,102168.39
2017-10-31T05:37:51.625Z,102176.02
2017-10-31T05:40:20.888Z,102172.25
2017-10-31T05:42:49.225Z,102167.77
2017-10-31T05:45:18.163Z,102171.58
2017-10-31T05:47:46.498Z,102169.85
2017-10-31T05:50:15.598Z,102168.75
2017-10-31T05:52:43.980Z,102172.72
2017-10-31T05:55:12.328Z,102167.09
2017-10-31T05:57:41.486Z,102176.95
2017-10-31T06:00:09.865Z,102170.43
2017-10-31T06:02:38.203Z,102172.61
2017-10-31T06:05:07.571Z,102175.17
2017-10-31T06:07:36.142Z,102179.02
2017-10-31T06:10:04.499Z,102184.36
2017-10-31T06:12:32.849Z,102181.90
2017-10-31T06:15:01.293Z,102181.58
2017-10-31T06:17:30.412Z,102184.91
2017-10-31T06:19:58.804Z,102189.89
2017-10-31T06:22:33.396Z,102191.83
2017-10-31T06:25:07.901Z,102189.96
2017-10-31T06:27:42.821Z,102189.03
2017-10-31T06:30:16.942Z,102196.48
2017-10-31T06:32:45.301Z,102186.45
2017-10-31T06:35:13.649Z,102195.81
2017-10-31T06:37:42.748Z,102199.26
2017-10-31T06:40:12.588Z,102199.19
2017-10-31T06:42:41.822Z,102197.74
2017-10-31T06:45:10.230Z,102208.70
2017-10-31T06:47:39.497Z,102201.01
2017-10-31T06:50:08.112Z,102208.67
2017-10-31T06:52:37.209Z,102205.21
2017-10-31T06:55:05.870Z,102204.45
2017-10-31T06:57:35.148Z,102199.31
2017-10-31T07:00:05.161Z,102209.67
2017-10-31T07:02:33.955Z,102200.67
2017-10-31T07:05:02.322Z,102214.16
2017-10-31T07:07:30.674Z,102207.19
2017-10-31T07:10:00.703Z,102210.56
2017-10-31T07:12:29.745Z,102204.38
2017-10-31T07:14:58.945Z,102210.11
2017-10-31T07:17:27.317Z,102216.86
2017-10-31T07:19:55.695Z,102210.76
2017-10-31T07:22:24.099Z,102208.56
2017-10-31T07:24:53.244Z,102211.98
2017-10-31T07:27:22.416Z,102220.87
2017-10-31T07:29:52.038Z,102221.83
2017-10-31T07:32:20.524Z,102216.85
2017-10-31T07:34:50.362Z,102212.95
2017-10-31T07:37:19.303Z,102212.64
2017-10-31T07:39:48.430Z,102208.30
2017-10-31T07:42:17.930Z,102201.22
2017-10-31T07:44:47.109Z,102203.83
2017-10-31T07:47:16.676Z,102209.32
2017-10-31T07:49:45.038Z,102209.48
2017-10-31T07:52:13.440Z,102211.27
2017-10-31T07:54:42.006Z,102211.70
2017-10-31T07:57:10.400Z,102210.60
2017-10-31T07:59:38.741Z,102211.90
2017-10-31T08:02:08.031Z,102209.05
2017-10-31T08:04:37.125Z,102213.35
2017-10-31T08:07:06.232Z,102209.02
2017-10-31T08:09:34.598Z,102211.77
2017-10-31T08:12:02.985Z,102212.42
2017-10-31T08:14:31.341Z,102210.77
2017-10-31T08:17:00.728Z,102211.86
2017-10-31T08:19:29.079Z,102212.91
2017-10-31T08:21:59.053Z,102207.09
2017-10-31T08:24:28.195Z,102212.79
2017-10-31T08:26:56.568Z,102207.56
2017-10-31T08:29:24.973Z,102201.17
2017-10-31T08:31:53.360Z,102203.97
2017-10-31T08:34:21.698Z,102197.66
2017-10-31T08:36:50.968Z,102199.99
2017-10-31T08:39:20.602Z,102195.30
2017-10-31T08:41:48.921Z,102195.29
2017-10-31T08:44:17.754Z,102198.26
2017-10-31T08:46:46.116Z,102205.22
2017-10-31T08:49:15.210Z,102199.70
2017-10-31T08:51:44.559Z,102206.41
2017-10-31T08:54:12.954Z,102203.04
2017-10-31T08:56:41.284Z,102197.51
2017-10-31T08:59:10.263Z,102200.89
2017-10-31T09:01:38.885Z,102200.06
2017-10-31T09:04:07.713Z,102211.50
2017-10-31T09:06:36.058Z,102204.10
2017-10-31T09:09:04.782Z,102201.95
2017-10-31T09:11:33.152Z,102200.92
2017-10-31T09:14:02.282Z,102205.34
2017-10-31T09:16:31.470Z,102205.33
2017-10-31T09:19:00.592Z,102200.47
2017-10-31T09:21:29.193Z,102205.91
2017-10-31T09:23:57.748Z,102208.25
2017-10-31T09:26:26.137Z,102203.81
2017-10-31T09:28:54.523Z,102199.86
2017-10-31T09:31:22.876Z,102209.14
2017-10-31T09:33:52.249Z,102203.31
2017-10-31T09:36:20.605Z,102207.08
2017-10-31T09:38:49.049Z,102204.42
2017-10-31T09:41:17.414Z,102208.92
2017-10-31T09:43:46.563Z,102206.83
2017-10-31T09:46:15.060Z,102203.53
2017-10-31T09:48:45.493Z,102198.77
2017-10-31T09:51:14.600Z,102195.56
2017-10-31T09:53:43.847Z,102196.05
2017-10-31T09:56:12.204Z,102190.20
2017-10-31T09:58:41.422Z,102198.84
2017-10-31T10:01:10.660Z,102202.20
2017-10-31T10:03:39.028Z,102190.27
2017-10-31T10:06:07.399Z,102198.45
2017-10-31T10:08:36.537Z,102196.94
2017-10-31T10:11:06.491Z,102195.98
2017-10-31T10:13:34.998Z,102195.77
2017-10-31T10:16:03.683Z,102196.53
2017-10-31T10:18:33.428Z,102195.67
2017-10-31T10:21:01.819Z,102194.75
2017-10-31T10:23:33.023Z,102200.82
2017-10-31T10:26:01.354Z,102198.67
2017-10-31T10:28:29.699Z,102191.94
2017-10-31T10:30:59.015Z,102197.75
2017-10-31T10:33:27.517Z,102191.88
2017-10-31T10:35:56.174Z,102195.09
2017-10-31T10:38:24.995Z,102192.67
2017-10-31T10:40:54.170Z,102187.31
2017-10-31T10:43:23.665Z,102187.77
2017-10-31T10:45:53.709Z,102181.08
2017-10-31T10:48:22.868Z,102185.87
2017-10-31T10:50:52.003Z,102177.12
2017-10-31T10:53:21.053Z,102173.93
2017-10-31T10:55:49.918Z,102168.20
2017-10-31T10:58:19.273Z,102175.14
2017-10-31T11:00:47.864Z,102168.38
2017-10-31T11:03:27.063Z,102162.84
2017-10-31T11:05:55.483Z,102165.18
2017-10-31T11:08:24.612Z,102166.45
2017-10-31T11:10:53.488Z,102167.34
2017-10-31T11:13:22.798Z,102165.68
2017-10-31T11:15:51.191Z,102165.27
2017-10-31T11:18:20.498Z,102158.45
2017-10-31T11:20:48.860Z,102157.02
2017-10-31T11:23:19.009Z,102153.66
2017-10-31T11:25:47.377Z,102149.53
2017-10-31T11:28:15.797Z,102151.11
2017-10-31T11:30:45.083Z,102156.52
2017-10-31T11:33:13.471Z,102150.30
2017-10-31T11:35:42.828Z,102150.45
2017-10-31T11:38:11.193Z,102151.87
2017-10-31T11:40:39.583Z,102147.14
2017-10-31T11:43:08.717Z,102151.09
2017-10-31T11:45:37.317Z,102148.28
2017-10-31T11:48:05.770Z,102150.51
2017-10-31T11:50:34.863Z,102150.33
2017-10-31T11:53:03.618Z,102149.71
2017-10-31T11:55:32.964Z,102159.08
2017-10-31T11:58:01.610Z,102148.98
2017-10-31T12:00:30.742Z,102152.27
2017-10-31T12:02:59.119Z,102148.87
2017-10-31T12:05:28.957Z,102147.31
2017-10-31T12:07:57.368Z,102149.79
2017-10-31T12:10:26.170Z,102147.00
2017-10-31T12:12:54.875Z,102149.79
2017-10-31T12:15:23.236Z,102148.58
2017-10-31T12:17:53.241Z,102145.28
2017-10-31T12:20:22.186Z,102140.27
2017-10-31T12:22:51.393Z,102136.20
2017-10-31T12:25:19.758Z,102139.13
2017-10-31T12:27:48.543Z,102138.16
2017-10-31T12:30:17.035Z,102133.98
2017-10-31T12:32:45.387Z,102123.75
2017-10-31T12:35:13.839Z,102123.47
2017-10-31T12:37:42.230Z,102128.33
2017-10-31T12:40:11.325Z,102124.54
2017-10-31T12:42:39.778Z,102123.04
2017-10-31T12:45:08.127Z,102127.36
2017-10-31T12:47:36.540Z,102127.97
2017-10-31T12:50:05.017Z,102129.84
2017-10-31T12:52:33.357Z,102119.32
2017-10-31T12:55:02.255Z,102117.19
2017-10-31T12:57:31.638Z,102122.65
2017-10-31T12:59:59.994Z,102108.52
2017-10-31T13:02:29.183Z,102114.45
2017-10-31T13:04:58.567Z,102115.38
2017-10-31T13:07:26.942Z,102113.79
2017-10-31T13:09:55.312Z,102112.80
2017-10-31T13:12:24.453Z,102108.14
2017-10-31T13:14:53.577Z,102102.13
2017-10-31T13:17:22.102Z,102106.34
2017-10-31T13:19:50.511Z,102104.86
2017-10-31T13:22:19.638Z,102099.23
2017-10-31T13:24:48.708Z,102104.42
2017-10-31T13:27:18.547Z,102101.19
2017-10-31T13:29:47.546Z,102107.78
2017-10-31T13:32:17.214Z,102100.33
2017-10-31T13:34:47.885Z,102103.80
2017-10-31T13:37:18.274Z,102095.72
2017-10-31T13:39:48.754Z,102088.86
2017-10-31T13:42:17.467Z,102079.28
2017-10-31T13:44:47.628Z,102091.72
2017-10-31T13:47:17.112Z,102085.07
2017-10-31T13:49:46.557Z,102083.42
2017-10-31T13:52:17.025Z,102083.42
2017-10-31T13:54:45.662Z,102077.20
2017-10-31T13:57:14.039Z,102076.34
2017-10-31T13:59:42.645Z,102072.05
2017-10-31T14:02:11.246Z,102066.12
2017-10-31T14:04:41.549Z,102065.05
2017-10-31T14:07:10.910Z,102068.84
2017-10-31T14:09:39.764Z,102068.47
2017-10-31T14:12:10.074Z,102060.41
2017-10-31T14:14:38.647Z,102055.04
2017-10-31T14:17:07.447Z,102055.25
2017-10-31T14:19:36.142Z,102062.05
2017-10-31T14:22:04.801Z,102057.75
2017-10-31T14:24:33.212Z,102054.69
2017-10-31T14:27:01.591Z,102056.26
2017-10-31T14:29:29.966Z,102052.61
2017-10-31T14:31:59.337Z,102050.19
2017-10-31T14:34:28.404Z,102040.32
2017-10-31T14:36:56.962Z,102044.31
2017-10-31T14:39:25.355Z,102036.44
2017-10-31T14:41:53.815Z,102032.80
2017-10-31T14:44:22.653Z,102030.24
2017-10-31T14:46:52.039Z,102033.81
2017-10-31T14:49:20.420Z,102030.79
2017-10-31T14:51:49.718Z,102028.88
2017-10-31T14:54:19.022Z,102029.87
2017-10-31T14:56:48.167Z,102022.42
2017-10-31T14:59:17.076Z,102020.66
2017-10-31T15:01:46.277Z,102018.09
2017-10-31T15:04:15.420Z,102011.27
2017-10-31T15:06:43.802Z,102011.71
2017-10-31T15:09:12.942Z,102014.14
2017-10-31T15:11:41.282Z,102004.73
2017-10-31T15:14:10.454Z,102006.80
2017-10-31T15:16:39.165Z,102000.66
2017-10-31T15:19:08.290Z,102005.86
2017-10-31T15:21:37.806Z,102001.44
2017-10-31T15:24:06.180Z,101996.16
2017-10-31T15:26:34.883Z,102001.66
2017-10-31T15:29:03.946Z,102004.09
2017-10-31T15:31:33.117Z,102003.01
2017-10-31T15:34:02.250Z,101999.58
2017-10-31T15:36:30.620Z,101994.22
2017-10-31T15:38:59.497Z,101990.57
2017-10-31T15:41:27.905Z,101984.98
2017-10-31T15:43:56.475Z,101985.72
2017-10-31T15:46:24.933Z,101980.64
2017-10-31T15:48:54.485Z,101976.72
2017-10-31T15:51:22.936Z,101983.13
2017-10-31T15:53:52.145Z,101981.93
2017-10-31T15:56:20.567Z,101978.42
2017-10-31T15:58:49.041Z,101973.70
2017-10-31T16:01:17.497Z,101976.63
2017-10-31T16:03:46.838Z,101966.45
2017-10-31T16:06:15.247Z,101976.03
2017-10-31T16:08:44.439Z,101969.01
2017-10-31T16:11:14.158Z,101972.20
2017-10-31T16:13:43.902Z,101964.70
2017-10-31T16:16:12.342Z,101970.56
2017-10-31T16:18:42.140Z,101970.36
2017-10-31T16:21:11.308Z,101970.94
2017-10-31T16:23:39.745Z,101971.00
2017-10-31T16:26:08.246Z,101971.14
2017-10-31T16:28:37.452Z,101975.07
2017-10-31T16:31:07.085Z,101968.85
2017-10-31T16:33:35.649Z,101962.86
2017-10-31T16:36:04.852Z,101962.77
2017-10-31T16:38:33.267Z,101958.56
2017-10-31T16:41:02.725Z,101953.70
2017-10-31T16:43:31.126Z,101961.14
2017-10-31T16:46:00.296Z,101961.12
2017-10-31T16:48:28.647Z,101962.03
2017-10-31T16:50:57.771Z,101955.41
2017-10-31T16:53:27.338Z,101952.14
2017-10-31T16:55:56.005Z,101953.79
2017-10-31T16:58:25.064Z,101951.86
2017-10-31T17:00:53.465Z,101956.06
2017-10-31T17:03:22.462Z,101949.66
2017-10-31T17:05:51.381Z,101954.19
2017-10-31T17:08:20.922Z,101957.05
2017-10-31T17:10:49.265Z,101958.50
2017-10-31T17:13:18.434Z,101952.78
2017-10-31T17:15:47.217Z,101959.08
2017-10-31T17:18:17.147Z,101960.00
2017-10-31T17:20:45.523Z,101951.92
2017-10-31T17:23:15.538Z,101961.21
2017-10-31T17:25:45.711Z,101958.50
2017-10-31T17:28:14.077Z,101953.43
2017-10-31T17:30:42.553Z,101962.06
2017-10-31T17:33:11.142Z,101956.09
2017-10-31T17:35:40.290Z,101962.21
2017-10-31T17:38:08.912Z,101954.22
2017-10-31T17:40:37.299Z,101957.64
2017-10-31T17:43:06.245Z,101952.78
2017-10-31T17:45:34.653Z,101954.86
2017-10-31T17:48:02.996Z,101950.64
2017-10-31T17:50:31.498Z,101950.64
2017-10-31T17:53:00.795Z,101948.78
2017-10-31T17:55:29.234Z,101936.43
2017-10-31T17:57:57.599Z,101934.27
2017-10-31T18:00:26.739Z,101933.57
2017-10-31T18:02:55.871Z,101935.13
2017-10-31T18:05:24.240Z,101931.13
2017-10-31T18:07:53.521Z,101930.61
2017-10-31T18:10:21.865Z,101924.41
2017-10-31T18:12:50.976Z,101926.42
2017-10-31T18:15:20.562Z,101930.57
2017-10-31T18:17:49.734Z,101929.64
2017-10-31T18:20:18.192Z,101925.00
2017-10-31T18:22:47.505Z,101930.00
2017-10-31T18:25:15.871Z,101929.20
2017-10-31T18:27:44.933Z,101925.00
2017-10-31T18:30:13.333Z,101918.57
2017-10-31T18:32:41.685Z,101921.07
2017-10-31T18:35:11.966Z,101919.86
2017-10-31T18:37:40.600Z,101920.42
2017-10-31T18:40:09.701Z,101925.00
2017-10-31T18:42:39.027Z,101920.43
2017-10-31T18:45:07.732Z,101920.14
2017-10-31T18:47:37.167Z,101918.34
2017-10-31T18:50:07.128Z,101911.64
2017-10-31T18:52:36.304Z,101915.78
2017-10-31T18:55:04.830Z,101907.50
2017-10-31T18:57:33.850Z,101908.86
2017-10-31T19:00:04.344Z,101900.15
2017-10-31T19:02:32.940Z,101907.64
2017-10-31T19:05:01.879Z,101902.56
2017-10-31T19:07:32.237Z,101896.65
2017-10-31T19:10:00.598Z,101891.44
2017-10-31T19:12:28.944Z,101890.64
2017-10-31T19:14:59.709Z,101889.48
2017-10-31T19:17:28.063Z,101893.94
2017-10-31T19:19:57.169Z,101881.86
2017-10-31T19:22:25.957Z,101877.22
2017-10-31T19:24:55.456Z,101878.72
2017-10-31T19:27:24.519Z,101879.66
2017-10-31T19:29:53.863Z,101877.51
2017-10-31T19:32:23.159Z,101874.16
2017-10-31T19:34:52.328Z,101876.94
2017-10-31T19:37:21.108Z,101867.86
2017-10-31T19:39:49.491Z,101872.15
2017-10-31T19:42:18.272Z,101871.20
2017-10-31T19:44:46.899Z,101870.42
2017-10-31T19:47:16.728Z,101862.48
2017-10-31T19:49:45.089Z,101856.44
2017-10-31T19:52:14.240Z,101860.50
2017-10-31T19:54:42.624Z,101853.14
2017-10-31T19:57:11.004Z,101846.20
2017-10-31T19:59:39.691Z,101841.59
2017-10-31T20:02:08.067Z,101856.30
2017-10-31T20:04:37.738Z,101849.73
2017-10-31T20:07:06.321Z,101851.44
2017-10-31T20:09:39.579Z,101851.15
2017-10-31T20:12:07.957Z,101839.70
2017-10-31T20:14:36.799Z,101846.08
2017-10-31T20:17:05.166Z,101855.58
2017-10-31T20:19:33.555Z,101840.24
2017-10-31T20:22:01.972Z,101843.67
2017-10-31T20:24:30.440Z,101843.31
2017-10-31T20:26:59.709Z,101839.59
2017-10-31T20:29:28.067Z,101838.29
2017-10-31T20:31:56.419Z,101838.16
2017-10-31T20:34:24.843Z,101832.30
2017-10-31T20:36:53.214Z,101840.59
2017-10-31T20:39:21.590Z,101838.88
2017-10-31T20:41:50.027Z,101834.50
2017-10-31T20:44:18.389Z,101836.55
2017-10-31T20:46:47.674Z,101839.05
2017-10-31T20:49:17.130Z,101834.47
2017-10-31T20:51:45.475Z,101831.00
2017-10-31T20:54:13.889Z,101827.23
2017-10-31T20:56:42.227Z,101835.88
2017-10-31T20:59:10.596Z,101829.70
2017-10-31T21:01:40.525Z,101827.55
2017-10-31T21:04:10.594Z,101839.87
2017-10-31T21:06:40.472Z,101827.73
2017-10-31T21:09:08.902Z,101825.65
2017-10-31T21:11:38.131Z,101822.45
2017-10-31T21:14:06.618Z,101816.94
2017-10-31T21:16:35.001Z,101819.88
2017-10-31T21:19:03.419Z,101817.75
2017-10-31T21:21:32.601Z,101810.59
2017-10-31T21:24:00.953Z,101813.30
2017-10-31T21:26:30.351Z,101808.57
2017-10-31T21:28:58.940Z,101810.63
2017-10-31T21:31:28.096Z,101803.73
2017-10-31T21:33:56.800Z,101808.72
2017-10-31T21:36:26.031Z,101805.95
2017-10-31T21:38:54.415Z,101799.70
2017-10-31T21:41:22.800Z,101800.94
2017-10-31T21:43:51.541Z,101797.59
2017-10-31T21:46:21.167Z,101799.78
2017-10-31T21:48:49.532Z,101796.05
2017-10-31T21:51:18.029Z,101789.61
2017-10-31T21:53:46.418Z,101778.52
2017-10-31T21:56:15.261Z,101778.86
2017-10-31T21:58:45.094Z,101781.06
2017-10-31T22:01:14.909Z,101775.94
2017-10-31T22:03:43.278Z,101773.53
2017-10-31T22:06:12.417Z,101769.06
2017-10-31T22:08:41.563Z,101762.07
2017-10-31T22:11:11.466Z,101772.00
2017-10-31T22:13:39.927Z,101767.08
2017-10-31T22:16:09.156Z,101768.98
2017-10-31T22:18:37.863Z,101763.68
2017-10-31T22:21:06.646Z,101769.52
2017-10-31T22:23:35.334Z,101769.93
2017-10-31T22:26:04.587Z,101768.77
2017-10-31T22:28:33.763Z,101771.48
2017-10-31T22:31:02.145Z,101769.11
2017-10-31T22:33:30.592Z,101770.97
2017-10-31T22:35:59.138Z,101767.32
2017-10-31T22:38:27.533Z,101777.41
2017-10-31T22:40:56.133Z,101771.44
2017-10-31T22:43:25.981Z,101768.84
2017-10-31T22:45:54.357Z,101767.85
2017-10-31T22:48:22.763Z,101763.14
2017-10-31T22:50:51.146Z,101764.92
2017-10-31T22:53:19.495Z,101756.91
2017-10-31T22:55:48.125Z,101753.12
2017-10-31T22:58:17.166Z,101751.67
2017-10-31T23:00:46.073Z,101757.64
2017-10-31T23:03:14.747Z,101754.14
2017-10-31T23:05:43.121Z,101748.58
2017-10-31T23:08:12.490Z,101751.58
2017-10-31T23:10:40.895Z,101747.45
2017-10-31T23:13:10.285Z,101738.96
2017-10-31T23:15:40.290Z,101746.16
2017-10-31T23:18:09.457Z,101739.40
2017-10-31T23:20:39.062Z,101730.12
2017-10-31T23:23:07.453Z,101740.71
2017-10-31T23:25:36.027Z,101741.67
2017-10-31T23:28:04.410Z,101735.32
2017-10-31T23:30:32.793Z,101729.45
2017-10-31T23:33:01.995Z,101722.11
2017-10-31T23:35:30.381Z,101728.32
2017-10-31T23:37:59.865Z,101730.97
2017-10-31T23:40:28.249Z,101725.70
2017-10-31T23:42:57.549Z,101721.74
2017-10-31T23:45:25.907Z,101722.55
2017-10-31T23:47:55.580Z,101719.98
2017-10-31T23:50:24.778Z,101708.99
2017-10-31T23:52:54.870Z,101717.70
2017-10-31T23:55:24.800Z,101718.47
2017-10-31T23:57:53.983Z,101717.73
